Terminal Aerodrome Forecast
Issued by NWS

Home | Current Version | Previous Version | Text Only | Print | Product List | Glossary On
Versions: 1 2 3 4 5 6 7 8 9 10 11 12 13 14 15 16 17 18 19 20 21 22 23
000
FTAK31 PAJN 251729
TAFAYA
TAF
PAYA 251729Z 2518/2618 VRB04KT P6SM -RA SCT010 OVC025
      TEMPO 2518/2521 BKN010
     FM252200 21006KT P6SM VCSH SCT015 OVC030
     FM260600 VRB03KT P6SM BCFG SCT003
     FM261200 07004KT P6SM SCT250
      AMD LTD TO CLD VIS AND WIND=

USA.gov is the U.S. government's official web portal to all federal, state and local government web resources and services.